CheckWX is a tool to help pilots better visualize weather data.  It is not intended as a substitute for an official pre-flight weather briefing.

01:15:24 UTC

ESSL METAR
Linköping City Airport
Linköping, Sweden
Current

25 mins ago

ESSL 240050Z AUTO 27014KT 240V300 9999 NCD 04/M01 Q1018
Observed
Mar-24 @ 00:50 UTC
Wind
  • 270° at 14 KTS
Visibility
10,000+ meters
Flight Rules
VFR
Cloud Levels
  • Clear skies
Temperature
C / 39°F
Dewpoint
-1°C / 30°F
Humidity
70%
Altimeter
30.06" Hg
Pressure
1017.92 hPa
Previous

55 mins ago

ESSL 240020Z AUTO 27016KT 9999 NCD 04/M00 Q1018
Observed
Mar-24 @ 00:20 UTC
Wind
  • 270° at 16 KTS
Visibility
10,000+ meters
Flight Rules
VFR
Cloud Levels
  • Clear skies
Temperature
C / 39°F
Dewpoint
C / 32°F
Humidity
75%
Altimeter
30.06" Hg
Pressure
1017.92 hPa
Previous

1 hour ago

ESSL 232350Z AUTO 27016KT 9999 NCD 04/M00 Q1018
Observed
Mar-23 @ 23:50 UTC
Wind
  • 270° at 16 KTS
Visibility
10,000+ meters
Flight Rules
VFR
Cloud Levels
  • Clear skies
Temperature
C / 39°F
Dewpoint
C / 32°F
Humidity
75%
Altimeter
30.06" Hg
Pressure
1017.92 hPa